sensor_id;sensor_type;location;lat;lon;timestamp;P1;durP1;ratioP1;P2;durP2;ratioP2
26052;SDS011;13826;51.186;4.450;2022-11-24T00:00:06;13.57;;;3.35;;
26052;SDS011;13826;51.186;4.450;2022-11-24T00:02:32;12.70;;;2.15;;
26052;SDS011;13826;51.186;4.450;2022-11-24T00:04:58;13.43;;;2.65;;
26052;SDS011;13826;51.186;4.450;2022-11-24T00:07:23;11.98;;;1.98;;
26052;SDS011;13826;51.186;4.450;2022-11-24T00:09:49;16.33;;;2.83;;
26052;SDS011;13826;51.186;4.450;2022-11-24T00:12:14;19.13;;;2.78;;
26052;SDS011;13826;51.186;4.450;2022-11-24T00:14:40;17.92;;;3.42;;
26052;SDS011;13826;51.186;4.450;2022-11-24T00:17:06;18.23;;;4.03;;
26052;SDS011;13826;51.186;4.450;2022-11-24T00:19:31;18.13;;;3.40;;
26052;SDS011;13826;51.186;4.450;2022-11-24T00:21:57;25.08;;;3.80;;
26052;SDS011;13826;51.186;4.450;2022-11-24T00:24:23;15.13;;;2.90;;
26052;SDS011;13826;51.186;4.450;2022-11-24T00:26:48;18.00;;;2.67;;
26052;SDS011;13826;51.186;4.450;2022-11-24T00:29:14;15.95;;;2.85;;
26052;SDS011;13826;51.186;4.450;2022-11-24T00:31:40;17.63;;;3.00;;
26052;SDS011;13826;51.186;4.450;2022-11-24T00:34:09;16.52;;;3.05;;
26052;SDS011;13826;51.186;4.450;2022-11-24T00:36:36;16.83;;;2.80;;
26052;SDS011;13826;51.186;4.450;2022-11-24T00:39:03;22.38;;;3.22;;
26052;SDS011;13826;51.186;4.450;2022-11-24T00:41:35;25.92;;;3.85;;
26052;SDS011;13826;51.186;4.450;2022-11-24T00:44:01;21.98;;;3.38;;
26052;SDS011;13826;51.186;4.450;2022-11-24T00:46:28;28.42;;;3.38;;
26052;SDS011;13826;51.186;4.450;2022-11-24T00:48:54;19.40;;;3.28;;
26052;SDS011;13826;51.186;4.450;2022-11-24T00:51:21;18.83;;;3.30;;
26052;SDS011;13826;51.186;4.450;2022-11-24T00:53:48;25.33;;;4.00;;
26052;SDS011;13826;51.186;4.450;2022-11-24T00:56:14;24.67;;;3.95;;
26052;SDS011;13826;51.186;4.450;2022-11-24T00:58:40;25.67;;;3.35;;
26052;SDS011;13826;51.186;4.450;2022-11-24T01:01:07;19.88;;;3.25;;
26052;SDS011;13826;51.186;4.450;2022-11-24T01:03:35;23.02;;;3.08;;
26052;SDS011;13826;51.186;4.450;2022-11-24T01:06:08;16.20;;;3.40;;
26052;SDS011;13826;51.186;4.450;2022-11-24T01:08:36;22.67;;;4.13;;
26052;SDS011;13826;51.186;4.450;2022-11-24T01:11:16;25.00;;;5.07;;
26052;SDS011;13826;51.186;4.450;2022-11-24T01:13:45;20.27;;;3.40;;
26052;SDS011;13826;51.186;4.450;2022-11-24T01:16:15;18.13;;;3.17;;
26052;SDS011;13826;51.186;4.450;2022-11-24T01:18:45;21.00;;;3.75;;
26052;SDS011;13826;51.186;4.450;2022-11-24T01:21:12;22.65;;;3.55;;
26052;SDS011;13826;51.186;4.450;2022-11-24T01:23:39;27.15;;;3.67;;
26052;SDS011;13826;51.186;4.450;2022-11-24T01:26:05;24.08;;;3.45;;
26052;SDS011;13826;51.186;4.450;2022-11-24T01:28:32;21.75;;;3.15;;
26052;SDS011;13826;51.186;4.450;2022-11-24T01:30:58;25.33;;;4.13;;
26052;SDS011;13826;51.186;4.450;2022-11-24T01:33:25;18.77;;;2.88;;
26052;SDS011;13826;51.186;4.450;2022-11-24T01:35:51;28.92;;;4.30;;
26052;SDS011;13826;51.186;4.450;2022-11-24T01:38:17;24.45;;;4.40;;
26052;SDS011;13826;51.186;4.450;2022-11-24T01:40:42;35.38;;;4.88;;
26052;SDS011;13826;51.186;4.450;2022-11-24T01:43:18;24.40;;;3.78;;
26052;SDS011;13826;51.186;4.450;2022-11-24T01:45:45;27.23;;;4.28;;
26052;SDS011;13826;51.186;4.450;2022-11-24T01:48:15;36.08;;;4.38;;
26052;SDS011;13826;51.186;4.450;2022-11-24T01:50:50;21.30;;;3.80;;
26052;SDS011;13826;51.186;4.450;2022-11-24T01:53:20;35.17;;;5.07;;
26052;SDS011;13826;51.186;4.450;2022-11-24T01:55:48;26.33;;;4.75;;
26052;SDS011;13826;51.186;4.450;2022-11-24T01:58:17;25.80;;;3.53;;
26052;SDS011;13826;51.186;4.450;2022-11-24T02:00:48;33.95;;;3.95;;
26052;SDS011;13826;51.186;4.450;2022-11-24T02:03:15;27.75;;;3.80;;
26052;SDS011;13826;51.186;4.450;2022-11-24T02:05:45;25.83;;;4.68;;
26052;SDS011;13826;51.186;4.450;2022-11-24T02:08:28;26.58;;;3.83;;
26052;SDS011;13826;51.186;4.450;2022-11-24T02:11:04;27.67;;;3.92;;
26052;SDS011;13826;51.186;4.450;2022-11-24T02:13:31;27.70;;;4.15;;
26052;SDS011;13826;51.186;4.450;2022-11-24T02:16:01;36.42;;;4.63;;
26052;SDS011;13826;51.186;4.450;2022-11-24T02:18:28;33.00;;;5.30;;
26052;SDS011;13826;51.186;4.450;2022-11-24T02:20:54;25.00;;;4.25;;
26052;SDS011;13826;51.186;4.450;2022-11-24T02:23:26;21.20;;;3.53;;
26052;SDS011;13826;51.186;4.450;2022-11-24T02:28:36;27.05;;;4.28;;
26052;SDS011;13826;51.186;4.450;2022-11-24T02:31:02;33.38;;;4.30;;
26052;SDS011;13826;51.186;4.450;2022-11-24T02:33:29;27.15;;;4.65;;
26052;SDS011;13826;51.186;4.450;2022-11-24T02:35:55;28.73;;;4.32;;
26052;SDS011;13826;51.186;4.450;2022-11-24T02:38:28;34.35;;;4.43;;
26052;SDS011;13826;51.186;4.450;2022-11-24T02:40:55;33.25;;;5.45;;
26052;SDS011;13826;51.186;4.450;2022-11-24T02:43:22;20.55;;;3.80;;
26052;SDS011;13826;51.186;4.450;2022-11-24T02:45:48;27.10;;;4.25;;
26052;SDS011;13826;51.186;4.450;2022-11-24T02:48:14;28.38;;;4.35;;
26052;SDS011;13826;51.186;4.450;2022-11-24T02:50:40;35.45;;;5.22;;
26052;SDS011;13826;51.186;4.450;2022-11-24T02:53:06;29.48;;;4.38;;
26052;SDS011;13826;51.186;4.450;2022-11-24T02:55:32;25.63;;;4.15;;
26052;SDS011;13826;51.186;4.450;2022-11-24T02:57:57;28.13;;;4.72;;
26052;SDS011;13826;51.186;4.450;2022-11-24T03:00:23;26.42;;;3.45;;
26052;SDS011;13826;51.186;4.450;2022-11-24T03:02:49;16.55;;;3.08;;
26052;SDS011;13826;51.186;4.450;2022-11-24T03:05:15;24.52;;;3.63;;
26052;SDS011;13826;51.186;4.450;2022-11-24T03:07:40;24.30;;;3.67;;
26052;SDS011;13826;51.186;4.450;2022-11-24T03:10:06;26.05;;;3.40;;
26052;SDS011;13826;51.186;4.450;2022-11-24T03:12:32;25.00;;;3.65;;
26052;SDS011;13826;51.186;4.450;2022-11-24T03:14:58;18.88;;;2.88;;
26052;SDS011;13826;51.186;4.450;2022-11-24T03:17:23;17.75;;;3.67;;
26052;SDS011;13826;51.186;4.450;2022-11-24T03:19:49;17.15;;;2.92;;
26052;SDS011;13826;51.186;4.450;2022-11-24T03:22:15;10.38;;;2.17;;
26052;SDS011;13826;51.186;4.450;2022-11-24T03:24:40;8.85;;;2.00;;
26052;SDS011;13826;51.186;4.450;2022-11-24T03:27:06;11.20;;;1.65;;
26052;SDS011;13826;51.186;4.450;2022-11-24T03:29:32;10.15;;;1.80;;
26052;SDS011;13826;51.186;4.450;2022-11-24T03:31:57;4.28;;;1.42;;
26052;SDS011;13826;51.186;4.450;2022-11-24T03:34:23;5.65;;;1.23;;
26052;SDS011;13826;51.186;4.450;2022-11-24T03:36:49;6.13;;;1.30;;
26052;SDS011;13826;51.186;4.450;2022-11-24T03:39:14;3.78;;;1.00;;
26052;SDS011;13826;51.186;4.450;2022-11-24T03:41:40;5.72;;;1.30;;
26052;SDS011;13826;51.186;4.450;2022-11-24T03:44:06;5.15;;;1.30;;
26052;SDS011;13826;51.186;4.450;2022-11-24T03:46:32;3.50;;;1.10;;
26052;SDS011;13826;51.186;4.450;2022-11-24T03:48:57;5.82;;;1.10;;
26052;SDS011;13826;51.186;4.450;2022-11-24T03:51:23;9.23;;;1.35;;
26052;SDS011;13826;51.186;4.450;2022-11-24T03:53:49;6.93;;;1.48;;
26052;SDS011;13826;51.186;4.450;2022-11-24T03:56:14;6.65;;;1.20;;
26052;SDS011;13826;51.186;4.450;2022-11-24T03:58:40;5.50;;;1.33;;
26052;SDS011;13826;51.186;4.450;2022-11-24T04:01:06;5.43;;;1.40;;
26052;SDS011;13826;51.186;4.450;2022-11-24T04:03:32;9.18;;;1.27;;
26052;SDS011;13826;51.186;4.450;2022-11-24T04:05:57;9.15;;;1.50;;
26052;SDS011;13826;51.186;4.450;2022-11-24T04:08:23;5.50;;;1.42;;
26052;SDS011;13826;51.186;4.450;2022-11-24T04:10:49;5.38;;;1.35;;
26052;SDS011;13826;51.186;4.450;2022-11-24T04:13:17;6.47;;;1.15;;
26052;SDS011;13826;51.186;4.450;2022-11-24T04:15:45;6.13;;;1.60;;
26052;SDS011;13826;51.186;4.450;2022-11-24T04:18:11;11.20;;;2.20;;
26052;SDS011;13826;51.186;4.450;2022-11-24T04:20:37;9.00;;;1.50;;
26052;SDS011;13826;51.186;4.450;2022-11-24T04:23:04;9.48;;;1.52;;
26052;SDS011;13826;51.186;4.450;2022-11-24T04:25:29;6.03;;;1.13;;
26052;SDS011;13826;51.186;4.450;2022-11-24T04:27:55;9.50;;;1.60;;
26052;SDS011;13826;51.186;4.450;2022-11-24T04:30:22;8.63;;;1.75;;
26052;SDS011;13826;51.186;4.450;2022-11-24T04:32:49;9.25;;;1.45;;
26052;SDS011;13826;51.186;4.450;2022-11-24T04:35:15;5.72;;;1.40;;
26052;SDS011;13826;51.186;4.450;2022-11-24T04:37:41;6.15;;;1.52;;
26052;SDS011;13826;51.186;4.450;2022-11-24T04:40:08;7.68;;;1.90;;
26052;SDS011;13826;51.186;4.450;2022-11-24T04:42:35;12.05;;;2.10;;
26052;SDS011;13826;51.186;4.450;2022-11-24T04:45:00;13.45;;;2.47;;
26052;SDS011;13826;51.186;4.450;2022-11-24T04:47:26;6.88;;;1.63;;
26052;SDS011;13826;51.186;4.450;2022-11-24T04:49:52;7.90;;;2.42;;
26052;SDS011;13826;51.186;4.450;2022-11-24T04:52:18;7.47;;;2.00;;
26052;SDS011;13826;51.186;4.450;2022-11-24T04:54:46;7.50;;;1.83;;
26052;SDS011;13826;51.186;4.450;2022-11-24T04:57:16;4.57;;;1.48;;
26052;SDS011;13826;51.186;4.450;2022-11-24T04:59:43;6.38;;;1.55;;
26052;SDS011;13826;51.186;4.450;2022-11-24T05:02:09;7.25;;;1.50;;
26052;SDS011;13826;51.186;4.450;2022-11-24T05:04:35;11.07;;;2.20;;
26052;SDS011;13826;51.186;4.450;2022-11-24T05:07:01;9.75;;;1.58;;
26052;SDS011;13826;51.186;4.450;2022-11-24T05:09:27;7.53;;;1.48;;
26052;SDS011;13826;51.186;4.450;2022-11-24T05:11:52;8.82;;;2.03;;
26052;SDS011;13826;51.186;4.450;2022-11-24T05:14:18;5.72;;;1.42;;
26052;SDS011;13826;51.186;4.450;2022-11-24T05:16:44;13.15;;;1.65;;
26052;SDS011;13826;51.186;4.450;2022-11-24T05:19:09;6.82;;;1.83;;
26052;SDS011;13826;51.186;4.450;2022-11-24T05:21:35;4.13;;;1.58;;
26052;SDS011;13826;51.186;4.450;2022-11-24T05:24:01;9.60;;;1.50;;
26052;SDS011;13826;51.186;4.450;2022-11-24T05:26:26;9.02;;;1.42;;
26052;SDS011;13826;51.186;4.450;2022-11-24T05:28:52;7.35;;;1.85;;
26052;SDS011;13826;51.186;4.450;2022-11-24T05:31:18;4.55;;;1.20;;
26052;SDS011;13826;51.186;4.450;2022-11-24T05:33:44;5.32;;;1.15;;
26052;SDS011;13826;51.186;4.450;2022-11-24T05:36:10;5.50;;;1.05;;
26052;SDS011;13826;51.186;4.450;2022-11-24T05:38:54;7.60;;;1.48;;
26052;SDS011;13826;51.186;4.450;2022-11-24T05:41:20;5.38;;;1.15;;
26052;SDS011;13826;51.186;4.450;2022-11-24T05:43:45;5.18;;;1.30;;
26052;SDS011;13826;51.186;4.450;2022-11-24T05:46:11;9.30;;;1.20;;
26052;SDS011;13826;51.186;4.450;2022-11-24T05:48:36;9.68;;;1.27;;
26052;SDS011;13826;51.186;4.450;2022-11-24T05:51:02;10.13;;;1.33;;
26052;SDS011;13826;51.186;4.450;2022-11-24T05:53:28;7.78;;;1.77;;
26052;SDS011;13826;51.186;4.450;2022-11-24T05:55:54;10.52;;;1.50;;
26052;SDS011;13826;51.186;4.450;2022-11-24T05:58:19;8.48;;;1.27;;
26052;SDS011;13826;51.186;4.450;2022-11-24T06:00:45;9.32;;;1.48;;
26052;SDS011;13826;51.186;4.450;2022-11-24T06:03:11;9.13;;;1.63;;
26052;SDS011;13826;51.186;4.450;2022-11-24T06:05:37;10.13;;;1.42;;
26052;SDS011;13826;51.186;4.450;2022-11-24T06:08:03;9.10;;;2.38;;
26052;SDS011;13826;51.186;4.450;2022-11-24T06:10:29;9.00;;;1.90;;
26052;SDS011;13826;51.186;4.450;2022-11-24T06:12:55;7.38;;;1.75;;
26052;SDS011;13826;51.186;4.450;2022-11-24T06:15:21;10.85;;;2.28;;
26052;SDS011;13826;51.186;4.450;2022-11-24T06:17:53;9.30;;;1.85;;
26052;SDS011;13826;51.186;4.450;2022-11-24T06:20:22;6.70;;;1.60;;
26052;SDS011;13826;51.186;4.450;2022-11-24T06:22:48;7.03;;;1.60;;
26052;SDS011;13826;51.186;4.450;2022-11-24T06:25:14;15.02;;;2.13;;
26052;SDS011;13826;51.186;4.450;2022-11-24T06:27:40;12.63;;;2.00;;
26052;SDS011;13826;51.186;4.450;2022-11-24T06:30:06;13.55;;;1.80;;
26052;SDS011;13826;51.186;4.450;2022-11-24T06:32:33;7.00;;;1.95;;
26052;SDS011;13826;51.186;4.450;2022-11-24T06:34:58;16.70;;;2.20;;
26052;SDS011;13826;51.186;4.450;2022-11-24T06:37:24;11.18;;;2.00;;
26052;SDS011;13826;51.186;4.450;2022-11-24T06:39:50;9.82;;;2.15;;
26052;SDS011;13826;51.186;4.450;2022-11-24T06:42:15;11.90;;;2.72;;
26052;SDS011;13826;51.186;4.450;2022-11-24T06:44:44;9.77;;;2.05;;
26052;SDS011;13826;51.186;4.450;2022-11-24T06:47:11;15.90;;;2.22;;
26052;SDS011;13826;51.186;4.450;2022-11-24T06:49:38;13.55;;;2.40;;
26052;SDS011;13826;51.186;4.450;2022-11-24T06:52:03;11.90;;;2.10;;
26052;SDS011;13826;51.186;4.450;2022-11-24T06:54:29;13.52;;;2.95;;
26052;SDS011;13826;51.186;4.450;2022-11-24T06:56:55;12.20;;;2.13;;
26052;SDS011;13826;51.186;4.450;2022-11-24T06:59:21;15.40;;;2.47;;
26052;SDS011;13826;51.186;4.450;2022-11-24T07:01:47;11.35;;;2.55;;
26052;SDS011;13826;51.186;4.450;2022-11-24T07:04:13;16.02;;;2.85;;
26052;SDS011;13826;51.186;4.450;2022-11-24T07:06:39;12.85;;;2.95;;
26052;SDS011;13826;51.186;4.450;2022-11-24T07:09:06;12.73;;;2.92;;
26052;SDS011;13826;51.186;4.450;2022-11-24T07:11:33;19.45;;;2.90;;
26052;SDS011;13826;51.186;4.450;2022-11-24T07:13:59;14.55;;;2.75;;
26052;SDS011;13826;51.186;4.450;2022-11-24T07:16:26;16.48;;;2.90;;
26052;SDS011;13826;51.186;4.450;2022-11-24T07:18:52;14.57;;;2.25;;
26052;SDS011;13826;51.186;4.450;2022-11-24T07:21:19;15.00;;;2.33;;
26052;SDS011;13826;51.186;4.450;2022-11-24T07:23:47;13.90;;;2.70;;
26052;SDS011;13826;51.186;4.450;2022-11-24T07:26:14;11.07;;;3.22;;
26052;SDS011;13826;51.186;4.450;2022-11-24T07:28:40;12.40;;;3.05;;
26052;SDS011;13826;51.186;4.450;2022-11-24T07:31:06;18.00;;;3.28;;
26052;SDS011;13826;51.186;4.450;2022-11-24T07:33:37;20.48;;;3.15;;
26052;SDS011;13826;51.186;4.450;2022-11-24T07:36:03;10.98;;;3.25;;
26052;SDS011;13826;51.186;4.450;2022-11-24T07:38:30;16.42;;;3.00;;
26052;SDS011;13826;51.186;4.450;2022-11-24T07:41:00;16.55;;;2.65;;
26052;SDS011;13826;51.186;4.450;2022-11-24T07:43:27;13.02;;;2.67;;
26052;SDS011;13826;51.186;4.450;2022-11-24T07:45:58;21.13;;;3.53;;
26052;SDS011;13826;51.186;4.450;2022-11-24T07:48:23;17.50;;;3.05;;
26052;SDS011;13826;51.186;4.450;2022-11-24T07:50:49;15.63;;;3.20;;
26052;SDS011;13826;51.186;4.450;2022-11-24T07:53:15;17.52;;;3.55;;
26052;SDS011;13826;51.186;4.450;2022-11-24T07:55:41;16.25;;;3.13;;
26052;SDS011;13826;51.186;4.450;2022-11-24T07:58:07;17.42;;;3.60;;
26052;SDS011;13826;51.186;4.450;2022-11-24T08:00:33;13.10;;;3.10;;
26052;SDS011;13826;51.186;4.450;2022-11-24T08:02:59;20.30;;;3.30;;
26052;SDS011;13826;51.186;4.450;2022-11-24T08:05:25;23.73;;;3.58;;
26052;SDS011;13826;51.186;4.450;2022-11-24T08:07:50;27.13;;;4.63;;
26052;SDS011;13826;51.186;4.450;2022-11-24T08:10:16;28.50;;;3.90;;
26052;SDS011;13826;51.186;4.450;2022-11-24T08:12:42;20.15;;;3.85;;
26052;SDS011;13826;51.186;4.450;2022-11-24T08:15:08;22.45;;;4.47;;
26052;SDS011;13826;51.186;4.450;2022-11-24T08:17:34;20.52;;;3.45;;
26052;SDS011;13826;51.186;4.450;2022-11-24T08:19:59;27.02;;;5.30;;
26052;SDS011;13826;51.186;4.450;2022-11-24T08:22:25;25.25;;;4.03;;
26052;SDS011;13826;51.186;4.450;2022-11-24T08:24:51;27.23;;;4.15;;
26052;SDS011;13826;51.186;4.450;2022-11-24T08:27:17;18.17;;;3.80;;
26052;SDS011;13826;51.186;4.450;2022-11-24T08:29:43;16.95;;;3.95;;
26052;SDS011;13826;51.186;4.450;2022-11-24T08:32:09;16.80;;;3.60;;
26052;SDS011;13826;51.186;4.450;2022-11-24T08:34:36;21.25;;;3.70;;
26052;SDS011;13826;51.186;4.450;2022-11-24T08:37:02;20.65;;;4.40;;
26052;SDS011;13826;51.186;4.450;2022-11-24T08:39:29;15.55;;;2.78;;
26052;SDS011;13826;51.186;4.450;2022-11-24T08:41:55;17.15;;;3.15;;
26052;SDS011;13826;51.186;4.450;2022-11-24T08:44:20;16.15;;;2.80;;
26052;SDS011;13826;51.186;4.450;2022-11-24T08:46:46;14.43;;;2.88;;
26052;SDS011;13826;51.186;4.450;2022-11-24T08:49:12;15.98;;;3.42;;
26052;SDS011;13826;51.186;4.450;2022-11-24T08:51:39;10.32;;;2.42;;
26052;SDS011;13826;51.186;4.450;2022-11-24T08:54:05;10.98;;;2.85;;
26052;SDS011;13826;51.186;4.450;2022-11-24T08:56:33;15.20;;;3.40;;
26052;SDS011;13826;51.186;4.450;2022-11-24T08:58:59;11.98;;;2.55;;
26052;SDS011;13826;51.186;4.450;2022-11-24T09:01:26;12.88;;;2.90;;
26052;SDS011;13826;51.186;4.450;2022-11-24T09:03:51;12.52;;;2.95;;
26052;SDS011;13826;51.186;4.450;2022-11-24T09:06:18;10.90;;;2.88;;
26052;SDS011;13826;51.186;4.450;2022-11-24T09:08:49;11.20;;;2.28;;
26052;SDS011;13826;51.186;4.450;2022-11-24T09:11:16;11.73;;;2.67;;
26052;SDS011;13826;51.186;4.450;2022-11-24T09:13:42;14.05;;;2.42;;
26052;SDS011;13826;51.186;4.450;2022-11-24T09:16:09;10.98;;;2.22;;
26052;SDS011;13826;51.186;4.450;2022-11-24T09:18:39;9.32;;;2.00;;
26052;SDS011;13826;51.186;4.450;2022-11-24T09:21:09;11.25;;;2.75;;
26052;SDS011;13826;51.186;4.450;2022-11-24T09:23:45;15.48;;;2.72;;
26052;SDS011;13826;51.186;4.450;2022-11-24T09:26:14;12.80;;;2.53;;
26052;SDS011;13826;51.186;4.450;2022-11-24T09:28:42;14.45;;;3.92;;
26052;SDS011;13826;51.186;4.450;2022-11-24T09:31:09;11.13;;;2.75;;
26052;SDS011;13826;51.186;4.450;2022-11-24T09:33:37;12.63;;;3.50;;
26052;SDS011;13826;51.186;4.450;2022-11-24T09:36:03;12.10;;;2.95;;
26052;SDS011;13826;51.186;4.450;2022-11-24T09:38:30;13.38;;;2.70;;
26052;SDS011;13826;51.186;4.450;2022-11-24T09:41:04;7.43;;;2.47;;
26052;SDS011;13826;51.186;4.450;2022-11-24T09:43:51;12.45;;;3.35;;
26052;SDS011;13826;51.186;4.450;2022-11-24T09:49:25;12.32;;;2.90;;
26052;SDS011;13826;51.186;4.450;2022-11-24T09:52:08;8.52;;;2.53;;
26052;SDS011;13826;51.186;4.450;2022-11-24T09:54:37;7.45;;;2.88;;
26052;SDS011;13826;51.186;4.450;2022-11-24T09:57:19;15.65;;;2.78;;
26052;SDS011;13826;51.186;4.450;2022-11-24T09:59:47;14.05;;;3.40;;
26052;SDS011;13826;51.186;4.450;2022-11-24T10:02:13;12.30;;;2.75;;
26052;SDS011;13826;51.186;4.450;2022-11-24T10:04:41;11.10;;;2.83;;
26052;SDS011;13826;51.186;4.450;2022-11-24T10:10:05;21.13;;;5.45;;
26052;SDS011;13826;51.186;4.450;2022-11-24T10:15:17;12.77;;;2.80;;
26052;SDS011;13826;51.186;4.450;2022-11-24T10:21:01;10.10;;;2.25;;
26052;SDS011;13826;51.186;4.450;2022-11-24T10:29:19;14.85;;;3.38;;
26052;SDS011;13826;51.186;4.450;2022-11-24T10:31:51;13.75;;;3.92;;
26052;SDS011;13826;51.186;4.450;2022-11-24T10:34:22;12.50;;;2.75;;
26052;SDS011;13826;51.186;4.450;2022-11-24T10:39:59;12.27;;;2.85;;
26052;SDS011;13826;51.186;4.450;2022-11-24T10:42:34;14.38;;;3.30;;
26052;SDS011;13826;51.186;4.450;2022-11-24T10:45:02;11.07;;;2.38;;
26052;SDS011;13826;51.186;4.450;2022-11-24T10:47:38;16.25;;;3.05;;
26052;SDS011;13826;51.186;4.450;2022-11-24T10:52:41;20.25;;;3.45;;
26052;SDS011;13826;51.186;4.450;2022-11-24T10:55:11;13.95;;;2.75;;
26052;SDS011;13826;51.186;4.450;2022-11-24T10:57:38;15.70;;;3.00;;
26052;SDS011;13826;51.186;4.450;2022-11-24T11:02:43;13.80;;;2.90;;
26052;SDS011;13826;51.186;4.450;2022-11-24T11:08:13;15.88;;;3.50;;
26052;SDS011;13826;51.186;4.450;2022-11-24T11:24:37;17.95;;;4.60;;
26052;SDS011;13826;51.186;4.450;2022-11-24T11:27:14;15.93;;;4.18;;
26052;SDS011;13826;51.186;4.450;2022-11-24T11:29:42;20.30;;;3.05;;
26052;SDS011;13826;51.186;4.450;2022-11-24T11:32:21;12.48;;;3.03;;
26052;SDS011;13826;51.186;4.450;2022-11-24T11:34:49;23.85;;;3.58;;
26052;SDS011;13826;51.186;4.450;2022-11-24T11:37:17;14.13;;;2.75;;
26052;SDS011;13826;51.186;4.450;2022-11-24T11:39:45;14.15;;;2.83;;
26052;SDS011;13826;51.186;4.450;2022-11-24T11:44:39;14.23;;;3.78;;
26052;SDS011;13826;51.186;4.450;2022-11-24T11:47:22;18.55;;;3.33;;
26052;SDS011;13826;51.186;4.450;2022-11-24T11:49:52;15.23;;;3.13;;
26052;SDS011;13826;51.186;4.450;2022-11-24T11:55:19;19.58;;;3.33;;
26052;SDS011;13826;51.186;4.450;2022-11-24T12:00:28;19.20;;;3.63;;
26052;SDS011;13826;51.186;4.450;2022-11-24T12:05:29;15.90;;;3.55;;
26052;SDS011;13826;51.186;4.450;2022-11-24T12:10:47;15.32;;;3.33;;
26052;SDS011;13826;51.186;4.450;2022-11-24T12:13:39;18.88;;;2.85;;
26052;SDS011;13826;51.186;4.450;2022-11-24T12:35:38;15.32;;;2.58;;
26052;SDS011;13826;51.186;4.450;2022-11-24T12:43:31;16.65;;;3.22;;
26052;SDS011;13826;51.186;4.450;2022-11-24T12:51:47;16.95;;;3.83;;
26052;SDS011;13826;51.186;4.450;2022-11-24T12:54:18;16.48;;;2.78;;
26052;SDS011;13826;51.186;4.450;2022-11-24T13:02:23;22.23;;;2.90;;
26052;SDS011;13826;51.186;4.450;2022-11-24T13:05:00;29.23;;;3.30;;
26052;SDS011;13826;51.186;4.450;2022-11-24T13:07:42;10.23;;;2.35;;
26052;SDS011;13826;51.186;4.450;2022-11-24T13:12:52;18.42;;;2.78;;
26052;SDS011;13826;51.186;4.450;2022-11-24T13:15:17;11.65;;;2.88;;
26052;SDS011;13826;51.186;4.450;2022-11-24T13:17:43;11.52;;;2.90;;
26052;SDS011;13826;51.186;4.450;2022-11-24T13:20:12;9.55;;;2.40;;
26052;SDS011;13826;51.186;4.450;2022-11-24T13:22:48;15.15;;;2.90;;
26052;SDS011;13826;51.186;4.450;2022-11-24T13:25:26;12.50;;;2.97;;
26052;SDS011;13826;51.186;4.450;2022-11-24T13:35:37;23.10;;;3.13;;
26052;SDS011;13826;51.186;4.450;2022-11-24T13:38:50;24.15;;;4.05;;
26052;SDS011;13826;51.186;4.450;2022-11-24T13:44:21;11.93;;;2.80;;
26052;SDS011;13826;51.186;4.450;2022-11-24T13:49:50;20.25;;;2.90;;
26052;SDS011;13826;51.186;4.450;2022-11-24T13:55:01;19.52;;;2.90;;
26052;SDS011;13826;51.186;4.450;2022-11-24T13:57:40;15.38;;;2.88;;
26052;SDS011;13826;51.186;4.450;2022-11-24T14:05:35;23.80;;;3.55;;
26052;SDS011;13826;51.186;4.450;2022-11-24T14:08:04;16.48;;;2.95;;
26052;SDS011;13826;51.186;4.450;2022-11-24T14:10:32;26.27;;;4.15;;
26052;SDS011;13826;51.186;4.450;2022-11-24T14:16:05;16.02;;;3.78;;
26052;SDS011;13826;51.186;4.450;2022-11-24T14:18:37;20.40;;;3.75;;
26052;SDS011;13826;51.186;4.450;2022-11-24T14:26:21;19.00;;;2.80;;
26052;SDS011;13826;51.186;4.450;2022-11-24T14:29:23;14.60;;;2.92;;
26052;SDS011;13826;51.186;4.450;2022-11-24T14:31:54;20.10;;;3.35;;
26052;SDS011;13826;51.186;4.450;2022-11-24T14:34:26;14.10;;;4.03;;
26052;SDS011;13826;51.186;4.450;2022-11-24T14:36:54;19.90;;;3.70;;
26052;SDS011;13826;51.186;4.450;2022-11-24T14:39:21;22.70;;;3.70;;
26052;SDS011;13826;51.186;4.450;2022-11-24T14:42:01;17.65;;;3.53;;
26052;SDS011;13826;51.186;4.450;2022-11-24T14:44:33;17.92;;;3.47;;
26052;SDS011;13826;51.186;4.450;2022-11-24T14:50:13;18.85;;;3.50;;
26052;SDS011;13826;51.186;4.450;2022-11-24T14:52:42;19.98;;;3.58;;
26052;SDS011;13826;51.186;4.450;2022-11-24T14:55:24;19.05;;;4.15;;
26052;SDS011;13826;51.186;4.450;2022-11-24T14:57:51;20.70;;;4.47;;
26052;SDS011;13826;51.186;4.450;2022-11-24T15:05:25;20.95;;;4.40;;
26052;SDS011;13826;51.186;4.450;2022-11-24T15:08:10;22.00;;;4.00;;
26052;SDS011;13826;51.186;4.450;2022-11-24T15:10:38;16.38;;;2.75;;
26052;SDS011;13826;51.186;4.450;2022-11-24T15:13:15;23.77;;;3.47;;
26052;SDS011;13826;51.186;4.450;2022-11-24T15:15:47;26.67;;;4.05;;
26052;SDS011;13826;51.186;4.450;2022-11-24T15:18:27;22.25;;;3.88;;
26052;SDS011;13826;51.186;4.450;2022-11-24T15:21:03;18.55;;;3.50;;
26052;SDS011;13826;51.186;4.450;2022-11-24T15:23:29;18.05;;;3.85;;
26052;SDS011;13826;51.186;4.450;2022-11-24T15:28:28;24.63;;;4.07;;
26052;SDS011;13826;51.186;4.450;2022-11-24T15:30:55;17.05;;;3.90;;
26052;SDS011;13826;51.186;4.450;2022-11-24T15:33:24;19.13;;;3.67;;
26052;SDS011;13826;51.186;4.450;2022-11-24T15:35:50;19.05;;;3.33;;
26052;SDS011;13826;51.186;4.450;2022-11-24T15:38:16;25.63;;;3.50;;
26052;SDS011;13826;51.186;4.450;2022-11-24T15:40:42;17.92;;;3.17;;
26052;SDS011;13826;51.186;4.450;2022-11-24T15:45:46;19.13;;;4.55;;
26052;SDS011;13826;51.186;4.450;2022-11-24T15:48:12;19.90;;;4.03;;
26052;SDS011;13826;51.186;4.450;2022-11-24T15:50:37;20.08;;;3.67;;
26052;SDS011;13826;51.186;4.450;2022-11-24T15:53:03;20.50;;;4.32;;
26052;SDS011;13826;51.186;4.450;2022-11-24T15:55:30;22.13;;;4.18;;
26052;SDS011;13826;51.186;4.450;2022-11-24T15:57:56;30.50;;;3.88;;
26052;SDS011;13826;51.186;4.450;2022-11-24T16:00:22;20.02;;;3.30;;
26052;SDS011;13826;51.186;4.450;2022-11-24T16:02:48;29.20;;;3.92;;
26052;SDS011;13826;51.186;4.450;2022-11-24T16:05:14;15.73;;;3.13;;
26052;SDS011;13826;51.186;4.450;2022-11-24T16:07:41;22.73;;;3.95;;
26052;SDS011;13826;51.186;4.450;2022-11-24T16:10:11;28.17;;;3.92;;
26052;SDS011;13826;51.186;4.450;2022-11-24T16:12:58;14.68;;;3.38;;
26052;SDS011;13826;51.186;4.450;2022-11-24T16:15:24;14.27;;;3.58;;
26052;SDS011;13826;51.186;4.450;2022-11-24T16:17:49;24.42;;;4.07;;
26052;SDS011;13826;51.186;4.450;2022-11-24T16:20:15;16.58;;;3.40;;
26052;SDS011;13826;51.186;4.450;2022-11-24T16:22:41;26.42;;;4.20;;
26052;SDS011;13826;51.186;4.450;2022-11-24T16:25:07;20.45;;;4.50;;
26052;SDS011;13826;51.186;4.450;2022-11-24T16:27:33;13.65;;;3.33;;
26052;SDS011;13826;51.186;4.450;2022-11-24T16:29:59;17.73;;;3.47;;
26052;SDS011;13826;51.186;4.450;2022-11-24T16:32:25;16.58;;;4.35;;
26052;SDS011;13826;51.186;4.450;2022-11-24T16:34:51;24.23;;;3.85;;
26052;SDS011;13826;51.186;4.450;2022-11-24T16:37:17;18.05;;;4.05;;
26052;SDS011;13826;51.186;4.450;2022-11-24T16:39:45;19.05;;;3.97;;
26052;SDS011;13826;51.186;4.450;2022-11-24T16:42:11;17.80;;;4.38;;
26052;SDS011;13826;51.186;4.450;2022-11-24T16:44:37;23.92;;;4.13;;
26052;SDS011;13826;51.186;4.450;2022-11-24T16:47:03;27.83;;;4.05;;
26052;SDS011;13826;51.186;4.450;2022-11-24T16:49:28;25.50;;;4.30;;
26052;SDS011;13826;51.186;4.450;2022-11-24T16:51:54;31.70;;;3.83;;
26052;SDS011;13826;51.186;4.450;2022-11-24T16:54:20;21.85;;;4.30;;
26052;SDS011;13826;51.186;4.450;2022-11-24T16:56:45;20.45;;;4.13;;
26052;SDS011;13826;51.186;4.450;2022-11-24T16:59:11;16.52;;;3.08;;
26052;SDS011;13826;51.186;4.450;2022-11-24T17:01:37;25.98;;;4.28;;
26052;SDS011;13826;51.186;4.450;2022-11-24T17:04:04;17.45;;;3.92;;